Time;durP1;ratioP1;P1;durP2;ratioP2;P2;SDS_P1;SDS_P2;PMS_P1;PMS_P2;Temp;Humidity;BMP_temperature;BMP_pressure;BME280_temperature;BME280_humidity;BME280_pressure;Samples;Min_cycle;Max_cycle;Signal;HPM_P1;HPM_P2
2021/10/04 00:00:39;;;;;;;;;;;;;;;12.94;100.00;97719.81;5061488;28;20363;-89
2021/10/04 00:03:14;;;;;;;;;;;;;;;12.98;100.00;97712.03;5042700;28;19931;-89
2021/10/04 00:05:47;;;;;;;;;;;;;;;12.67;100.00;97727.06;5067263;28;19974;-88
2021/10/04 00:08:14;;;;;;;;;;;;;;;12.84;100.00;97721.91;5092385;28;19924;-89
2021/10/04 00:10:48;;;;;;;;;;;;;;;12.89;100.00;97731.69;5078076;28;20290;-89
2021/10/04 00:13:16;;;;;;;;;;;;;;;13.27;100.00;97729.13;5045430;28;19931;-89
2021/10/04 00:15:43;;;;;;;;;;;;;;;13.00;100.00;97734.78;5062654;28;19927;-89
2021/10/04 00:18:12;;;;;;;;;;;;;;;13.09;100.00;97729.16;5089823;28;20298;-90
2021/10/04 00:20:39;;;;;;;;;;;;;;;13.02;100.00;97735.09;5047321;28;19963;-89
2021/10/04 00:23:09;;;;;;;;;;;;;;;12.80;100.00;97731.72;5041776;28;19931;-89
2021/10/04 00:25:41;;;;;;;;;;;;;;;13.12;100.00;97739.44;5087702;28;19949;-89
2021/10/04 00:28:11;;;;;;;;;;;;;;;13.00;100.00;97743.19;5048360;28;19931;-89
2021/10/04 00:30:41;;;;;;;;;;;;;;;13.03;100.00;97747.88;5063496;28;19974;-89
2021/10/04 00:33:11;;;;;;;;;;;;;;;12.98;100.00;97757.66;5092371;28;19932;-90
2021/10/04 00:35:40;;;;;;;;;;;;;;;12.81;100.00;97747.28;5052537;28;19931;-88
2021/10/04 00:38:10;;;;;;;;;;;;;;;12.88;100.00;97752.53;5049252;28;20404;-89
2021/10/04 00:40:42;;;;;;;;;;;;;;;12.99;100.00;97750.03;5050417;28;20358;-88
2021/10/04 00:43:09;;;;;;;;;;;;;;;13.12;100.00;97750.66;5078915;28;19970;-89
2021/10/04 00:45:37;;;;;;;;;;;;;;;13.15;100.00;97747.69;5054831;28;20376;-89
2021/10/04 00:48:04;;;;;;;;;;;;;;;13.12;100.00;97757.03;5048494;28;19924;-89
2021/10/04 00:50:31;;;;;;;;;;;;;;;13.16;100.00;97756.88;5058192;28;19985;-90
2021/10/04 00:53:00;;;;;;;;;;;;;;;12.92;100.00;97753.19;5069947;28;20333;-90
2021/10/04 00:55:52;;;;;;;;;;;;;;;12.91;100.00;97763.59;5042015;28;20002;-87
2021/10/04 00:58:22;;;;;;;;;;;;;;;12.96;100.00;97760.19;5085861;28;19924;-88
2021/10/04 01:00:52;;;;;;;;;;;;;;;13.03;100.00;97754.25;5091849;28;19924;-88
2021/10/04 01:03:19;;;;;;;;;;;;;;;13.23;100.00;97756.53;5058290;28;20014;-89
2021/10/04 01:05:47;;;;;;;;;;;;;;;13.06;100.00;97769.34;5044357;28;19935;-89
2021/10/04 01:08:21;;;;;;;;;;;;;;;13.19;100.00;97761.56;5054982;28;19925;-88
2021/10/04 01:10:49;;;;;;;;;;;;;;;13.16;100.00;97768.84;5069037;28;19924;-88
2021/10/04 01:13:18;;;;;;;;;;;;;;;13.15;100.00;97767.31;5078724;28;19924;-89
2021/10/04 01:15:45;;;;;;;;;;;;;;;13.22;100.00;97777.44;5078175;28;19924;-90
2021/10/04 01:18:13;;;;;;;;;;;;;;;12.63;100.00;97776.09;5044559;28;19925;-89
2021/10/04 01:20:40;;;;;;;;;;;;;;;13.26;100.00;97778.03;5054121;28;20286;-90
2021/10/04 01:23:18;;;;;;;;;;;;;;;13.33;100.00;97767.25;5072875;28;19939;-89
2021/10/04 01:25:51;;;;;;;;;;;;;;;13.22;100.00;97775.41;5029561;28;19925;-90
2021/10/04 01:28:29;;;;;;;;;;;;;;;13.21;100.00;97781.50;5045100;28;19932;-90
2021/10/04 01:31:09;;;;;;;;;;;;;;;13.24;100.00;97772.91;5044853;28;20358;-90
2021/10/04 01:34:36;;;;;;;;;;;;;;;13.21;100.00;97776.66;5072084;28;20375;-89
2021/10/04 01:37:29;;;;;;;;;;;;;;;13.23;100.00;97776.16;5050958;28;20379;-90
2021/10/04 01:40:11;;;;;;;;;;;;;;;13.42;100.00;97780.50;5028699;28;19968;-89
2021/10/04 01:43:20;;;;;;;;;;;;;;;13.34;100.00;97784.88;4983691;28;19988;-89
2021/10/04 01:52:17;;;;;;;;;;;;;;;12.90;100.00;97792.88;4948138;29;19929;-89
2021/10/04 02:08:08;;;;;;;;;;;;;;;13.25;100.00;97779.28;4810262;29;19932;-89
2021/10/04 02:10:50;;;;;;;;;;;;;;;13.32;100.00;97781.75;4860419;29;20489;-90
2021/10/04 02:13:29;;;;;;;;;;;;;;;13.34;100.00;97779.25;4831143;29;19935;-89
2021/10/04 02:16:12;;;;;;;;;;;;;;;13.22;100.00;97775.41;4831777;29;20411;-89
2021/10/04 02:27:59;;;;;;;;;;;;;;;13.58;100.00;97778.09;4914270;29;19949;-89
2021/10/04 02:30:38;;;;;;;;;;;;;;;13.33;100.00;97780.53;4901678;29;19933;-90
2021/10/04 02:33:27;;;;;;;;;;;;;;;13.47;100.00;97779.81;4916099;29;19934;-89
2021/10/04 02:36:53;;;;;;;;;;;;;;;13.38;100.00;97769.44;4879659;29;19939;-89
2021/10/04 02:39:58;;;;;;;;;;;;;;;13.52;100.00;97767.97;4970346;28;19958;-90
2021/10/04 02:47:45;;;;;;;;;;;;;;;13.21;100.00;97776.66;4992845;28;19926;-90
2021/10/04 02:51:37;;;;;;;;;;;;;;;13.05;100.00;97776.22;4946960;29;19942;-90
2021/10/04 02:59:15;;;;;;;;;;;;;;;12.98;100.00;97779.34;5032326;28;20362;-89
2021/10/04 03:07:28;;;;;;;;;;;;;;;12.58;100.00;97791.50;4980153;28;19933;-89
2021/10/04 03:11:24;;;;;;;;;;;;;;;12.90;100.00;97794.91;4939434;29;20279;-89
2021/10/04 03:14:03;;;;;;;;;;;;;;;12.35;100.00;97791.34;4915155;29;19930;-89
2021/10/04 03:27:14;;;;;;;;;;;;;;;12.13;100.00;97797.06;4878984;29;19920;-89
2021/10/04 04:44:16;;;;;;;;;;;;;;;11.62;100.00;97823.13;4905729;29;20393;-88
2021/10/04 05:08:07;;;;;;;;;;;;;;;11.31;100.00;97827.97;4895855;29;20373;-87
2021/10/04 05:10:35;;;;;;;;;;;;;;;10.96;100.00;97835.69;4939721;28;19929;-88
2021/10/04 05:13:07;;;;;;;;;;;;;;;11.25;100.00;97836.19;4994565;28;19926;-88
2021/10/04 05:15:39;;;;;;;;;;;;;;;10.68;100.00;97839.50;4994699;28;19933;-88
2021/10/04 05:21:47;;;;;;;;;;;;;;;11.11;100.00;97845.09;4989094;28;19987;-88
2021/10/04 05:28:35;;;;;;;;;;;;;;;11.03;100.00;97846.59;5029294;28;20387;-88
2021/10/04 05:31:14;;;;;;;;;;;;;;;11.20;100.00;97849.97;5021645;28;19932;-88
2021/10/04 05:34:07;;;;;;;;;;;;;;;11.06;100.00;97837.28;5007314;28;20027;-88
2021/10/04 05:37:23;;;;;;;;;;;;;;;11.18;100.00;97858.81;5013499;28;20327;-89
2021/10/04 05:41:05;;;;;;;;;;;;;;;11.58;100.00;97856.88;5012989;28;19925;-89
2021/10/04 05:43:54;;;;;;;;;;;;;;;11.36;100.00;97844.94;5040074;28;19978;-88
2021/10/04 05:55:17;;;;;;;;;;;;;;;11.72;100.00;97842.34;4979045;28;20081;-89
2021/10/04 05:58:11;;;;;;;;;;;;;;;11.23;100.00;97838.66;4958200;28;19922;-88
2021/10/04 06:00:38;;;;;;;;;;;;;;;11.25;100.00;97844.56;4945536;28;20068;-88
2021/10/04 06:03:05;;;;;;;;;;;;;;;10.93;100.00;97853.34;4977220;28;20408;-88
2021/10/04 06:05:33;;;;;;;;;;;;;;;11.55;100.00;97845.81;4977717;28;19925;-87
2021/10/04 06:08:02;;;;;;;;;;;;;;;11.02;100.00;97845.03;4976145;28;19934;-87
2021/10/04 06:10:29;;;;;;;;;;;;;;;11.76;100.00;97856.19;5001765;28;20385;-87
2021/10/04 06:12:57;;;;;;;;;;;;;;;11.20;100.00;97838.78;4977948;28;19932;-93
2021/10/04 06:15:25;;;;;;;;;;;;;;;11.11;100.00;97852.69;4964742;28;19930;-86
2021/10/04 06:17:55;;;;;;;;;;;;;;;11.89;100.00;97859.69;4977228;28;20029;-87
2021/10/04 06:20:22;;;;;;;;;;;;;;;11.39;100.00;97860.78;5033883;28;20484;-87
2021/10/04 06:22:50;;;;;;;;;;;;;;;11.05;100.00;97860.09;5043327;28;20283;-87
2021/10/04 06:25:17;;;;;;;;;;;;;;;11.55;100.00;97855.00;5069199;28;19931;-87
2021/10/04 06:27:45;;;;;;;;;;;;;;;11.70;100.00;97867.22;5055758;28;19977;-88
2021/10/04 06:30:13;;;;;;;;;;;;;;;11.61;100.00;97864.34;5007055;28;20284;-88
2021/10/04 06:32:40;;;;;;;;;;;;;;;11.43;100.00;97871.84;5062517;28;20298;-86
2021/10/04 06:35:08;;;;;;;;;;;;;;;11.35;100.00;97874.13;5024848;28;20300;-86
2021/10/04 06:37:35;;;;;;;;;;;;;;;12.23;100.00;97879.06;5039269;28;20286;-87
2021/10/04 06:40:06;;;;;;;;;;;;;;;11.52;100.00;97864.31;5056069;28;20595;-87
2021/10/04 06:42:34;;;;;;;;;;;;;;;11.46;100.00;97868.94;5043056;28;20424;-86
2021/10/04 06:45:01;;;;;;;;;;;;;;;12.01;100.00;97873.53;5032286;28;19925;-87
2021/10/04 06:47:28;;;;;;;;;;;;;;;11.37;100.00;97876.47;5068163;28;19943;-87
2021/10/04 06:49:55;;;;;;;;;;;;;;;12.07;100.00;97868.91;5032561;28;19994;-87
2021/10/04 06:52:23;;;;;;;;;;;;;;;12.44;100.00;97870.56;4988118;28;19925;-87
2021/10/04 06:54:50;;;;;;;;;;;;;;;12.25;100.00;97857.00;5036163;28;20384;-87
2021/10/04 06:57:17;;;;;;;;;;;;;;;11.92;100.00;97861.56;5019720;28;19925;-87
2021/10/04 06:59:44;;;;;;;;;;;;;;;11.66;100.00;97865.78;5019958;28;20426;-87
2021/10/04 07:02:12;;;;;;;;;;;;;;;12.11;100.00;97860.38;5026492;28;19925;-87
2021/10/04 07:04:39;;;;;;;;;;;;;;;12.36;100.00;97868.50;5049991;28;19974;-87
2021/10/04 07:07:06;;;;;;;;;;;;;;;11.64;100.00;97862.66;5067362;28;19932;-87
2021/10/04 07:09:35;;;;;;;;;;;;;;;12.42;100.00;97866.66;5040339;28;20302;-87
2021/10/04 07:12:02;;;;;;;;;;;;;;;12.08;100.00;97869.69;5082151;28;20009;-87
2021/10/04 07:14:29;;;;;;;;;;;;;;;12.27;100.00;97872.06;5056360;28;20006;-88
2021/10/04 07:16:57;;;;;;;;;;;;;;;12.49;100.00;97869.97;5047319;28;19924;-87
2021/10/04 07:19:24;;;;;;;;;;;;;;;12.81;100.00;97876.19;5055961;28;19970;-88
2021/10/04 07:21:52;;;;;;;;;;;;;;;12.56;100.00;97875.25;5036412;28;19925;-87
2021/10/04 07:24:20;;;;;;;;;;;;;;;12.83;100.00;97879.31;5062797;28;20610;-88
2021/10/04 07:26:49;;;;;;;;;;;;;;;11.87;100.00;97876.94;5040678;28;19929;-86
2021/10/04 07:29:17;;;;;;;;;;;;;;;11.99;100.00;97884.44;5050151;28;19925;-87
2021/10/04 07:31:45;;;;;;;;;;;;;;;12.25;100.00;97879.41;5056214;28;19957;-87
2021/10/04 07:34:12;;;;;;;;;;;;;;;12.42;100.00;97889.84;5073769;28;20015;-88
2021/10/04 07:36:39;;;;;;;;;;;;;;;12.93;100.00;97880.88;5039451;28;19931;-87
2021/10/04 07:39:08;;;;;;;;;;;;;;;12.25;100.00;97880.16;5042136;28;20003;-87
2021/10/04 07:41:35;;;;;;;;;;;;;;;12.30;100.00;97887.16;5072156;28;20018;-87
2021/10/04 07:44:03;;;;;;;;;;;;;;;12.77;100.00;97882.75;5034658;28;19974;-87
2021/10/04 07:46:30;;;;;;;;;;;;;;;13.20;100.00;97886.50;5057569;28;19931;-88
2021/10/04 07:48:57;;;;;;;;;;;;;;;13.47;100.00;97886.44;5029041;28;20352;-87
2021/10/04 07:51:25;;;;;;;;;;;;;;;13.49;100.00;97887.56;5057671;28;19947;-88
2021/10/04 07:53:52;;;;;;;;;;;;;;;12.96;100.00;97879.94;5047580;28;19924;-87
2021/10/04 07:56:19;;;;;;;;;;;;;;;13.29;100.00;97878.06;5033566;28;19929;-88
2021/10/04 07:58:46;;;;;;;;;;;;;;;13.13;100.00;97881.22;5029429;28;19951;-80
2021/10/04 08:01:14;;;;;;;;;;;;;;;12.82;100.00;97888.97;5053971;28;19925;-88
2021/10/04 08:03:41;;;;;;;;;;;;;;;12.70;100.00;97893.47;5051497;28;19931;-89
2021/10/04 08:06:09;;;;;;;;;;;;;;;13.42;100.00;97893.47;5041589;28;19951;-88
2021/10/04 08:08:36;;;;;;;;;;;;;;;13.47;100.00;97906.09;5032719;28;20424;-88
2021/10/04 08:11:04;;;;;;;;;;;;;;;13.33;100.00;97906.75;5077348;28;20007;-88
2021/10/04 08:13:31;;;;;;;;;;;;;;;13.16;100.00;97905.50;5076730;28;20387;-87
2021/10/04 08:16:00;;;;;;;;;;;;;;;13.70;100.00;97909.03;5070537;28;19924;-88
2021/10/04 08:18:32;;;;;;;;;;;;;;;14.07;100.00;97907.63;5071964;28;19928;-87
2021/10/04 08:20:59;;;;;;;;;;;;;;;14.42;100.00;97905.94;5033263;28;19932;-86
2021/10/04 08:23:27;;;;;;;;;;;;;;;14.12;100.00;97904.19;5086427;28;19924;-83
2021/10/04 08:25:54;;;;;;;;;;;;;;;14.24;100.00;97908.84;5073742;28;19956;-84
2021/10/04 08:28:22;;;;;;;;;;;;;;;14.31;100.00;97902.88;5075966;28;19926;-82
2021/10/04 08:30:49;;;;;;;;;;;;;;;14.22;100.00;97900.06;5075570;28;19928;-83
2021/10/04 08:33:16;;;;;;;;;;;;;;;14.37;100.00;97900.97;5074977;28;20010;-84
2021/10/04 08:35:43;;;;;;;;;;;;;;;13.59;100.00;97905.91;5080482;28;19928;-84
2021/10/04 08:38:10;;;;;;;;;;;;;;;14.36;100.00;97904.25;5084106;28;19928;-84
2021/10/04 08:40:38;;;;;;;;;;;;;;;14.03;100.00;97909.06;5054943;28;20010;-91
2021/10/04 08:43:05;;;;;;;;;;;;;;;14.44;100.00;97906.25;5077225;28;20015;-89
2021/10/04 08:45:36;;;;;;;;;;;;;;;14.69;100.00;97905.00;5056671;28;20031;-89
2021/10/04 08:48:09;;;;;;;;;;;;;;;14.67;100.00;97904.69;5037216;28;20016;-90
2021/10/04 08:50:37;;;;;;;;;;;;;;;13.82;100.00;97898.84;5042064;28;19924;-89
2021/10/04 08:53:05;;;;;;;;;;;;;;;14.39;100.00;97901.28;5062906;28;19939;-88
2021/10/04 08:55:34;;;;;;;;;;;;;;;14.84;100.00;97900.22;5049189;28;19959;-83
2021/10/04 08:58:07;;;;;;;;;;;;;;;14.67;100.00;97901.09;5079153;28;19967;-82
2021/10/04 09:00:35;;;;;;;;;;;;;;;14.63;100.00;97901.28;5087293;28;19928;-82
2021/10/04 09:03:03;;;;;;;;;;;;;;;14.37;100.00;97900.19;5077980;28;19924;-82
2021/10/04 09:05:30;;;;;;;;;;;;;;;14.89;100.00;97901.59;5071246;28;19924;-81
2021/10/04 09:08:07;;;;;;;;;;;;;;;14.23;100.00;97906.47;5082499;28;20594;-82
2021/10/04 09:10:35;;;;;;;;;;;;;;;14.13;100.00;97916.97;5078083;28;20322;-82
2021/10/04 09:13:03;;;;;;;;;;;;;;;14.67;100.00;97918.75;5060175;28;20391;-82
2021/10/04 09:15:40;;;;;;;;;;;;;;;14.59;100.00;97916.75;5081560;28;19932;-82
2021/10/04 09:18:19;;;;;;;;;;;;;;;14.17;100.00;97923.22;5078343;28;19930;-82
2021/10/04 09:20:55;;;;;;;;;;;;;;;14.41;100.00;97920.47;5078858;28;20371;-82
2021/10/04 09:23:44;;;;;;;;;;;;;;;14.44;100.00;97919.50;5059714;28;19998;-82
2021/10/04 09:26:30;;;;;;;;;;;;;;;14.78;100.00;97923.84;5072378;28;19925;-84
2021/10/04 09:29:06;;;;;;;;;;;;;;;14.94;100.00;97921.38;5075872;28;19924;-80
2021/10/04 09:31:38;;;;;;;;;;;;;;;15.16;100.00;97912.63;5062239;28;20287;-83
2021/10/04 09:34:06;;;;;;;;;;;;;;;15.08;100.00;97906.59;5075738;28;19956;-86
2021/10/04 09:36:43;;;;;;;;;;;;;;;15.43;100.00;97901.94;5070901;28;20299;-82
2021/10/04 09:39:11;;;;;;;;;;;;;;;15.09;100.00;97912.97;5048598;28;19931;-81
2021/10/04 09:41:57;;;;;;;;;;;;;;;15.13;100.00;97917.16;5073398;28;19924;-83
2021/10/04 09:44:25;;;;;;;;;;;;;;;15.08;100.00;97915.03;5071211;28;19928;-82
2021/10/04 09:47:13;;;;;;;;;;;;;;;14.66;100.00;97922.81;5079977;28;19925;-82
2021/10/04 09:49:49;;;;;;;;;;;;;;;15.03;100.00;97918.50;5073757;28;19989;-82
2021/10/04 09:52:16;;;;;;;;;;;;;;;15.16;100.00;97921.81;5054141;28;19940;-82
2021/10/04 09:54:44;;;;;;;;;;;;;;;15.46;100.00;97923.50;5072658;28;19931;-83
2021/10/04 09:57:21;;;;;;;;;;;;;;;15.49;100.00;97921.72;5070757;28;20015;-84
2021/10/04 09:59:48;;;;;;;;;;;;;;;15.67;100.00;97916.72;5077841;28;19924;-84
2021/10/04 10:02:16;;;;;;;;;;;;;;;15.54;100.00;97912.63;5083341;28;19924;-84
2021/10/04 10:04:47;;;;;;;;;;;;;;;15.60;100.00;97914.25;5063672;28;19925;-84
2021/10/04 10:07:15;;;;;;;;;;;;;;;15.54;100.00;97915.44;5094035;28;19928;-84
2021/10/04 10:09:42;;;;;;;;;;;;;;;15.34;100.00;97915.28;5063277;28;20361;-82
2021/10/04 10:12:10;;;;;;;;;;;;;;;15.82;100.00;97911.06;5085806;28;20356;-84
2021/10/04 10:14:39;;;;;;;;;;;;;;;15.60;100.00;97922.72;5073816;28;20011;-84
2021/10/04 10:17:29;;;;;;;;;;;;;;;15.87;100.00;97908.34;5100647;28;19924;-84
2021/10/04 10:19:58;;;;;;;;;;;;;;;16.42;100.00;97913.31;5060316;28;19924;-84
2021/10/04 10:22:29;;;;;;;;;;;;;;;15.80;100.00;97903.09;5083445;28;20353;-84
2021/10/04 10:24:56;;;;;;;;;;;;;;;15.72;100.00;97899.13;5076723;28;19934;-84
2021/10/04 10:27:40;;;;;;;;;;;;;;;16.02;100.00;97903.47;5085084;28;20023;-85
2021/10/04 10:30:18;;;;;;;;;;;;;;;16.04;100.00;97895.31;5063126;28;19924;-83
2021/10/04 10:32:45;;;;;;;;;;;;;;;16.06;100.00;97915.34;5044331;28;19925;-86
2021/10/04 10:35:12;;;;;;;;;;;;;;;15.75;100.00;97906.59;5075031;28;20342;-86
2021/10/04 10:37:52;;;;;;;;;;;;;;;16.41;100.00;97909.72;5033099;28;19949;-86
2021/10/04 10:40:20;;;;;;;;;;;;;;;16.77;100.00;97906.41;5076495;28;20457;-85
2021/10/04 10:43:17;;;;;;;;;;;;;;;16.64;100.00;97908.03;5082070;28;19924;-86
2021/10/04 10:45:47;;;;;;;;;;;;;;;16.08;100.00;97918.41;5038253;28;20023;-86
2021/10/04 10:48:14;;;;;;;;;;;;;;;16.49;100.00;97913.72;5024251;28;20008;-86
2021/10/04 10:50:43;;;;;;;;;;;;;;;16.45;100.00;97918.00;5063634;28;19966;-83
2021/10/04 10:53:13;;;;;;;;;;;;;;;16.30;100.00;97917.25;5040220;28;20359;-85
2021/10/04 10:55:41;;;;;;;;;;;;;;;16.22;100.00;97912.00;5086309;28;19928;-84
2021/10/04 10:58:12;;;;;;;;;;;;;;;16.60;100.00;97918.75;5064685;28;19930;-85
2021/10/04 11:00:59;;;;;;;;;;;;;;;17.04;100.00;97920.09;5048409;28;19931;-88
2021/10/04 11:03:27;;;;;;;;;;;;;;;16.54;100.00;97920.72;5053044;28;19931;-84
2021/10/04 11:06:07;;;;;;;;;;;;;;;16.28;100.00;97926.94;5052680;28;19925;-85
2021/10/04 11:08:34;;;;;;;;;;;;;;;16.42;100.00;97931.00;5035930;28;19924;-85
2021/10/04 11:11:01;;;;;;;;;;;;;;;16.33;100.00;97938.81;5065094;28;19925;-85
2021/10/04 11:13:34;;;;;;;;;;;;;;;15.52;100.00;97934.84;5063479;28;20327;-86
2021/10/04 11:16:04;;;;;;;;;;;;;;;15.24;100.00;97936.28;5055824;28;19931;-85
2021/10/04 11:18:36;;;;;;;;;;;;;;;16.21;100.00;97938.63;5075621;28;20599;-85
2021/10/04 11:21:04;;;;;;;;;;;;;;;16.85;100.00;97918.84;5056423;28;19924;-86
2021/10/04 11:23:32;;;;;;;;;;;;;;;16.63;100.00;97920.59;5070413;28;19931;-85
2021/10/04 11:25:59;;;;;;;;;;;;;;;16.75;100.00;97914.59;5016509;28;19924;-84
2021/10/04 11:28:27;;;;;;;;;;;;;;;17.28;100.00;97917.06;5055592;28;20025;-85
2021/10/04 11:30:59;;;;;;;;;;;;;;;16.73;100.00;97916.34;5072640;28;20026;-86
2021/10/04 11:33:27;;;;;;;;;;;;;;;16.71;100.00;97910.41;5043799;28;19998;-86
2021/10/04 11:35:54;;;;;;;;;;;;;;;17.11;100.00;97913.28;5073971;28;19925;-85
2021/10/04 11:38:22;;;;;;;;;;;;;;;17.35;100.00;97905.34;5046390;28;19932;-84
2021/10/04 11:40:49;;;;;;;;;;;;;;;17.44;100.00;97910.84;5041649;28;19970;-84
2021/10/04 11:43:19;;;;;;;;;;;;;;;17.09;100.00;97908.13;5047050;28;20011;-84
2021/10/04 11:45:47;;;;;;;;;;;;;;;16.80;100.00;97913.91;5022583;28;19925;-84
2021/10/04 11:48:30;;;;;;;;;;;;;;;16.47;100.00;97932.38;5067210;28;19925;-84
2021/10/04 11:50:58;;;;;;;;;;;;;;;16.50;100.00;97942.69;5037796;28;19925;-85
2021/10/04 11:53:29;;;;;;;;;;;;;;;15.70;100.00;97945.94;5050968;28;19963;-84
2021/10/04 11:56:00;;;;;;;;;;;;;;;16.07;100.00;97947.88;5054092;28;20004;-84
2021/10/04 11:58:29;;;;;;;;;;;;;;;16.94;100.00;97937.66;5068321;28;19924;-85
2021/10/04 12:01:04;;;;;;;;;;;;;;;16.92;100.00;97940.97;5092761;28;19938;-84
2021/10/04 12:03:32;;;;;;;;;;;;;;;16.10;100.00;97926.38;5067440;28;19935;-84
2021/10/04 12:06:00;;;;;;;;;;;;;;;15.60;100.00;97928.34;5070954;28;19925;-84
2021/10/04 12:08:38;;;;;;;;;;;;;;;16.72;100.00;97926.84;5080530;28;19924;-84
2021/10/04 12:11:09;;;;;;;;;;;;;;;16.71;100.00;97918.88;5051284;28;19929;-87
2021/10/04 12:13:41;;;;;;;;;;;;;;;16.50;100.00;97926.53;5051919;28;19978;-91
2021/10/04 12:16:10;;;;;;;;;;;;;;;16.91;100.00;97921.72;5073208;28;19931;-85
2021/10/04 12:18:53;;;;;;;;;;;;;;;16.91;100.00;97924.56;5073746;28;19932;-88
2021/10/04 12:21:20;;;;;;;;;;;;;;;17.16;100.00;97932.31;5031515;28;19931;-88
2021/10/04 12:24:07;;;;;;;;;;;;;;;16.95;100.00;97913.84;5053723;28;19977;-87
2021/10/04 12:26:53;;;;;;;;;;;;;;;17.09;100.00;97922.22;5023055;28;20019;-88
2021/10/04 12:29:27;;;;;;;;;;;;;;;17.25;100.00;97920.88;5083718;28;19928;-84
2021/10/04 12:31:54;;;;;;;;;;;;;;;17.25;100.00;97910.34;5076806;28;19973;-84
2021/10/04 12:34:26;;;;;;;;;;;;;;;16.64;100.00;97930.59;5092005;28;19982;-84
2021/10/04 12:36:54;;;;;;;;;;;;;;;16.34;100.00;97934.72;5087892;28;19924;-84
2021/10/04 12:39:36;;;;;;;;;;;;;;;16.71;100.00;97941.44;5079999;28;20038;-84
2021/10/04 12:42:04;;;;;;;;;;;;;;;16.73;100.00;97939.69;5072117;28;20527;-85
2021/10/04 12:44:36;;;;;;;;;;;;;;;16.17;100.00;97948.56;5081236;28;19925;-84
2021/10/04 12:47:12;;;;;;;;;;;;;;;15.96;100.00;97950.47;5085921;28;19969;-85
2021/10/04 12:49:52;;;;;;;;;;;;;;;16.18;100.00;97953.69;5093000;28;20015;-84
2021/10/04 12:52:21;;;;;;;;;;;;;;;16.52;100.00;97951.44;5080630;28;19931;-83
2021/10/04 12:54:49;;;;;;;;;;;;;;;16.61;100.00;97934.38;5088209;28;20019;-84
2021/10/04 12:57:23;;;;;;;;;;;;;;;16.49;100.00;97938.31;5085171;28;19931;-84
2021/10/04 13:00:03;;;;;;;;;;;;;;;16.57;100.00;97936.66;5072333;28;19924;-84
2021/10/04 13:02:30;;;;;;;;;;;;;;;16.70;100.00;97945.53;5055530;28;19924;-84
2021/10/04 13:04:58;;;;;;;;;;;;;;;16.56;100.00;97923.78;5045642;28;19945;-84
2021/10/04 13:07:29;;;;;;;;;;;;;;;16.38;100.00;97947.34;5082446;28;19924;-84
2021/10/04 13:09:56;;;;;;;;;;;;;;;15.73;100.00;97954.19;5073544;28;19935;-84
2021/10/04 13:12:24;;;;;;;;;;;;;;;15.68;100.00;97946.41;5076113;28;19932;-84
2021/10/04 13:14:53;;;;;;;;;;;;;;;15.98;100.00;97942.34;5078336;28;19974;-84
2021/10/04 13:17:22;;;;;;;;;;;;;;;15.72;100.00;97934.97;5064011;28;19986;-84
2021/10/04 13:19:51;;;;;;;;;;;;;;;15.54;100.00;97941.53;5024536;28;19974;-84
2021/10/04 13:22:20;;;;;;;;;;;;;;;15.27;100.00;97936.13;5046085;28;19960;-84
2021/10/04 13:24:48;;;;;;;;;;;;;;;15.33;100.00;97941.84;5075984;28;19986;-83
2021/10/04 13:27:15;;;;;;;;;;;;;;;15.28;100.00;97939.72;5068739;28;19925;-83
2021/10/04 13:29:44;;;;;;;;;;;;;;;15.25;100.00;97947.06;5025424;28;19935;-83
2021/10/04 13:32:11;;;;;;;;;;;;;;;15.06;100.00;97956.91;5039322;28;20051;-81
2021/10/04 13:34:38;;;;;;;;;;;;;;;14.93;100.00;97952.78;5044559;28;20291;-81
2021/10/04 13:37:05;;;;;;;;;;;;;;;15.34;100.00;97961.06;5062580;28;20361;-81
2021/10/04 13:39:32;;;;;;;;;;;;;;;15.56;100.00;97953.09;5053973;28;19935;-81
2021/10/04 13:41:59;;;;;;;;;;;;;;;15.76;100.00;97946.81;5067407;28;19931;-81
2021/10/04 13:44:26;;;;;;;;;;;;;;;15.76;100.00;97956.03;5052166;28;19925;-81
2021/10/04 13:46:56;;;;;;;;;;;;;;;14.62;100.00;97933.47;5070213;28;19960;-80
2021/10/04 13:49:25;;;;;;;;;;;;;;;14.39;100.00;97948.25;5069339;28;20001;-80
2021/10/04 13:51:52;;;;;;;;;;;;;;;14.25;100.00;97954.59;5051558;28;19931;-80
2021/10/04 13:54:19;;;;;;;;;;;;;;;14.19;100.00;97968.44;5059507;28;19928;-81
2021/10/04 13:56:46;;;;;;;;;;;;;;;14.10;100.00;97967.72;5056004;28;19925;-80
2021/10/04 13:59:13;;;;;;;;;;;;;;;13.98;100.00;97969.44;5061072;28;19929;-80
2021/10/04 14:01:40;;;;;;;;;;;;;;;13.72;100.00;97985.09;5060778;28;20019;-81
2021/10/04 14:04:18;;;;;;;;;;;;;;;13.36;100.00;98015.22;5054637;28;19925;-81
2021/10/04 14:06:45;;;;;;;;;;;;;;;12.15;100.00;98024.19;5058359;28;19929;-80
2021/10/04 14:09:12;;;;;;;;;;;;;;;12.47;100.00;98034.91;5064036;28;19951;-80
2021/10/04 14:11:40;;;;;;;;;;;;;;;12.74;100.00;98029.41;5063663;28;20024;-80
2021/10/04 14:14:07;;;;;;;;;;;;;;;12.67;100.00;98012.09;5071344;28;19928;-79
2021/10/04 14:16:35;;;;;;;;;;;;;;;12.87;100.00;98006.09;5028919;28;19931;-86
2021/10/04 14:19:02;;;;;;;;;;;;;;;13.01;100.00;98002.72;5071671;28;19947;-85
2021/10/04 14:21:29;;;;;;;;;;;;;;;13.22;100.00;98007.41;5052308;28;19932;-86
2021/10/04 14:23:58;;;;;;;;;;;;;;;13.26;100.00;98019.25;5045566;28;19931;-86
2021/10/04 14:26:25;;;;;;;;;;;;;;;13.45;100.00;98023.66;5058395;28;19995;-85
2021/10/04 14:28:52;;;;;;;;;;;;;;;13.45;100.00;98012.44;5061910;28;19925;-85
2021/10/04 14:31:19;;;;;;;;;;;;;;;13.43;100.00;97992.47;5062850;28;19924;-86
2021/10/04 14:33:50;;;;;;;;;;;;;;;13.38;100.00;97981.84;5053232;28;19960;-86
2021/10/04 14:36:18;;;;;;;;;;;;;;;13.00;100.00;97984.31;5034049;28;20346;-87
2021/10/04 14:38:46;;;;;;;;;;;;;;;12.08;100.00;97988.06;5033122;28;19930;-86
2021/10/04 14:41:17;;;;;;;;;;;;;;;12.51;100.00;97993.53;5049967;28;20529;-87
2021/10/04 14:43:45;;;;;;;;;;;;;;;13.01;100.00;97991.50;5049037;28;20371;-87
2021/10/04 14:46:12;;;;;;;;;;;;;;;13.81;100.00;97989.94;5076830;28;20283;-87
2021/10/04 14:48:39;;;;;;;;;;;;;;;14.39;100.00;97981.97;5026283;28;20375;-88
2021/10/04 14:51:06;;;;;;;;;;;;;;;14.59;100.00;97979.38;5040422;28;20299;-87
2021/10/04 14:53:34;;;;;;;;;;;;;;;14.90;100.00;97977.03;5054471;28;20342;-88
2021/10/04 14:56:02;;;;;;;;;;;;;;;14.93;100.00;97976.09;5080039;28;19931;-88
2021/10/04 14:58:30;;;;;;;;;;;;;;;14.86;100.00;97972.84;5050594;28;20019;-88
2021/10/04 15:01:00;;;;;;;;;;;;;;;15.05;100.00;97969.44;5048224;28;20399;-87
2021/10/04 15:03:30;;;;;;;;;;;;;;;15.22;100.00;97973.34;5050289;28;19929;-88
2021/10/04 15:05:58;;;;;;;;;;;;;;;15.06;100.00;97962.53;5043345;28;20282;-87
2021/10/04 15:08:25;;;;;;;;;;;;;;;15.50;100.00;97960.66;5051985;28;19932;-88
2021/10/04 15:10:52;;;;;;;;;;;;;;;15.60;100.00;97959.31;5062108;28;19932;-87
2021/10/04 15:13:19;;;;;;;;;;;;;;;15.76;100.00;97958.84;5017601;28;19924;-88
2021/10/04 15:15:47;;;;;;;;;;;;;;;15.83;100.00;97958.47;5027623;28;20438;-88
2021/10/04 15:18:14;;;;;;;;;;;;;;;15.81;100.00;97949.72;5073409;28;19974;-87
2021/10/04 15:20:43;;;;;;;;;;;;;;;15.70;100.00;97955.16;5057647;28;19928;-88
2021/10/04 15:23:11;;;;;;;;;;;;;;;14.48;100.00;97949.00;5057633;28;19925;-87
2021/10/04 15:25:38;;;;;;;;;;;;;;;15.58;100.00;97950.59;5050546;28;19925;-87
2021/10/04 15:28:05;;;;;;;;;;;;;;;15.79;100.00;97941.00;5047144;28;19932;-87
2021/10/04 15:30:33;;;;;;;;;;;;;;;16.27;100.00;97925.41;5034899;28;19924;-87
2021/10/04 15:33:00;;;;;;;;;;;;;;;15.62;100.00;97923.00;5057094;28;19924;-87
2021/10/04 15:35:28;;;;;;;;;;;;;;;16.02;100.00;97911.91;5070033;28;19924;-87
2021/10/04 15:37:55;;;;;;;;;;;;;;;16.28;100.00;97921.31;5071071;28;19968;-87
2021/10/04 15:40:22;;;;;;;;;;;;;;;16.21;100.00;97915.28;5067680;28;19931;-88
2021/10/04 15:42:50;;;;;;;;;;;;;;;16.25;100.00;97922.28;5024624;28;19925;-87
2021/10/04 15:45:17;;;;;;;;;;;;;;;16.33;100.00;97905.75;5059765;28;19947;-87
2021/10/04 15:47:45;;;;;;;;;;;;;;;16.53;100.00;97907.88;5037107;28;19924;-92